CheckWX is a tool to help pilots better visualize weather data.  It is not intended as a substitute for an official pre-flight weather briefing.

15:12:31 UTC

KCSV TAF
Crossville Memorial-Whitson Field Airport
Crossville, Tennessee, USA
KCSV 211120Z 2112/2212 02007KT P6SM SKC

Feb-21@
12:00 UTC

Feb-21 @ 12:00 UTC

Feb-22@
12:00 UTC

Feb-22 @ 12:00 UTC

KCSV 211120Z 2112/2212 02007KT P6SM SKC
Wind
  • 020° at 7 KTS
Cloud Levels
  • Clear skies